sensor_id;sensor_type;location;lat;lon;timestamp;P1;durP1;ratioP1;P2;durP2;ratioP2
13343;SDS011;6741;48.964;9.406;2022-10-30T00:00:35;14.57;;;8.47;;
13343;SDS011;6741;48.964;9.406;2022-10-30T00:03:02;12.53;;;7.87;;
13343;SDS011;6741;48.964;9.406;2022-10-30T00:05:29;13.13;;;8.20;;
13343;SDS011;6741;48.964;9.406;2022-10-30T00:07:56;13.10;;;9.20;;
13343;SDS011;6741;48.964;9.406;2022-10-30T00:10:27;12.67;;;9.77;;
13343;SDS011;6741;48.964;9.406;2022-10-30T00:12:54;15.73;;;8.97;;
13343;SDS011;6741;48.964;9.406;2022-10-30T00:15:22;16.03;;;9.00;;
13343;SDS011;6741;48.964;9.406;2022-10-30T00:17:49;11.37;;;9.27;;
13343;SDS011;6741;48.964;9.406;2022-10-30T00:20:15;14.50;;;8.63;;
13343;SDS011;6741;48.964;9.406;2022-10-30T00:22:42;13.90;;;9.20;;
13343;SDS011;6741;48.964;9.406;2022-10-30T00:25:09;12.43;;;9.57;;
13343;SDS011;6741;48.964;9.406;2022-10-30T00:27:38;14.87;;;9.33;;
13343;SDS011;6741;48.964;9.406;2022-10-30T00:30:05;11.53;;;8.40;;
13343;SDS011;6741;48.964;9.406;2022-10-30T00:32:33;9.37;;;8.37;;
13343;SDS011;6741;48.964;9.406;2022-10-30T00:35:00;11.23;;;8.83;;
13343;SDS011;6741;48.964;9.406;2022-10-30T00:37:27;12.20;;;8.53;;
13343;SDS011;6741;48.964;9.406;2022-10-30T00:39:53;14.37;;;9.33;;
13343;SDS011;6741;48.964;9.406;2022-10-30T00:42:20;12.83;;;9.03;;
13343;SDS011;6741;48.964;9.406;2022-10-30T00:44:49;11.27;;;8.90;;
13343;SDS011;6741;48.964;9.406;2022-10-30T00:47:18;12.37;;;8.97;;
13343;SDS011;6741;48.964;9.406;2022-10-30T00:49:50;15.33;;;8.10;;
13343;SDS011;6741;48.964;9.406;2022-10-30T00:52:21;11.73;;;7.90;;
13343;SDS011;6741;48.964;9.406;2022-10-30T00:54:52;11.47;;;8.37;;
13343;SDS011;6741;48.964;9.406;2022-10-30T00:57:21;13.27;;;8.67;;
13343;SDS011;6741;48.964;9.406;2022-10-30T00:59:50;14.97;;;8.77;;
13343;SDS011;6741;48.964;9.406;2022-10-30T01:02:17;10.87;;;8.53;;
13343;SDS011;6741;48.964;9.406;2022-10-30T01:04:46;13.17;;;8.80;;
13343;SDS011;6741;48.964;9.406;2022-10-30T01:07:15;12.10;;;8.43;;
13343;SDS011;6741;48.964;9.406;2022-10-30T01:09:42;11.00;;;8.43;;
13343;SDS011;6741;48.964;9.406;2022-10-30T01:12:11;12.63;;;8.83;;
13343;SDS011;6741;48.964;9.406;2022-10-30T01:14:39;13.47;;;9.07;;
13343;SDS011;6741;48.964;9.406;2022-10-30T01:17:33;15.13;;;8.23;;
13343;SDS011;6741;48.964;9.406;2022-10-30T01:20:22;12.43;;;8.47;;
13343;SDS011;6741;48.964;9.406;2022-10-30T01:23:15;11.23;;;9.07;;
13343;SDS011;6741;48.964;9.406;2022-10-30T01:25:55;16.27;;;9.57;;
13343;SDS011;6741;48.964;9.406;2022-10-30T01:28:34;14.03;;;9.03;;
13343;SDS011;6741;48.964;9.406;2022-10-30T01:31:16;16.23;;;9.60;;
13343;SDS011;6741;48.964;9.406;2022-10-30T01:33:59;15.60;;;8.37;;
13343;SDS011;6741;48.964;9.406;2022-10-30T01:36:36;16.50;;;8.97;;
13343;SDS011;6741;48.964;9.406;2022-10-30T01:39:06;12.00;;;8.93;;
13343;SDS011;6741;48.964;9.406;2022-10-30T01:41:37;17.97;;;9.27;;
13343;SDS011;6741;48.964;9.406;2022-10-30T01:44:05;16.13;;;8.77;;
13343;SDS011;6741;48.964;9.406;2022-10-30T01:46:40;10.50;;;7.57;;
13343;SDS011;6741;48.964;9.406;2022-10-30T01:49:17;13.77;;;7.77;;
13343;SDS011;6741;48.964;9.406;2022-10-30T01:51:56;13.77;;;6.17;;
13343;SDS011;6741;48.964;9.406;2022-10-30T01:54:32;7.73;;;5.77;;
13343;SDS011;6741;48.964;9.406;2022-10-30T01:57:06;13.43;;;5.90;;
13343;SDS011;6741;48.964;9.406;2022-10-30T01:59:38;10.27;;;5.37;;
13343;SDS011;6741;48.964;9.406;2022-10-30T02:02:07;10.33;;;5.57;;
13343;SDS011;6741;48.964;9.406;2022-10-30T02:04:36;10.00;;;5.37;;
13343;SDS011;6741;48.964;9.406;2022-10-30T02:07:04;7.93;;;5.53;;
13343;SDS011;6741;48.964;9.406;2022-10-30T02:09:31;10.37;;;5.33;;
13343;SDS011;6741;48.964;9.406;2022-10-30T02:11:58;7.97;;;4.77;;
13343;SDS011;6741;48.964;9.406;2022-10-30T02:14:29;11.03;;;5.83;;
13343;SDS011;6741;48.964;9.406;2022-10-30T02:17:00;12.20;;;5.23;;
13343;SDS011;6741;48.964;9.406;2022-10-30T02:19:29;10.80;;;5.80;;
13343;SDS011;6741;48.964;9.406;2022-10-30T02:21:57;9.57;;;5.60;;
13343;SDS011;6741;48.964;9.406;2022-10-30T02:24:24;11.03;;;5.53;;
13343;SDS011;6741;48.964;9.406;2022-10-30T02:26:51;8.63;;;4.80;;
13343;SDS011;6741;48.964;9.406;2022-10-30T02:29:18;10.37;;;5.40;;
13343;SDS011;6741;48.964;9.406;2022-10-30T02:31:46;7.67;;;4.90;;
13343;SDS011;6741;48.964;9.406;2022-10-30T02:34:13;11.60;;;6.43;;
13343;SDS011;6741;48.964;9.406;2022-10-30T02:36:41;10.13;;;6.50;;
13343;SDS011;6741;48.964;9.406;2022-10-30T02:39:09;10.30;;;5.87;;
13343;SDS011;6741;48.964;9.406;2022-10-30T02:41:36;5.97;;;5.47;;
13343;SDS011;6741;48.964;9.406;2022-10-30T02:44:04;14.93;;;6.80;;
13343;SDS011;6741;48.964;9.406;2022-10-30T02:46:31;7.83;;;5.93;;
13343;SDS011;6741;48.964;9.406;2022-10-30T02:48:58;10.53;;;6.00;;
13343;SDS011;6741;48.964;9.406;2022-10-30T02:51:25;12.63;;;6.70;;
13343;SDS011;6741;48.964;9.406;2022-10-30T02:53:52;8.97;;;5.93;;
13343;SDS011;6741;48.964;9.406;2022-10-30T02:56:20;11.77;;;6.57;;
13343;SDS011;6741;48.964;9.406;2022-10-30T02:58:47;9.87;;;6.40;;
13343;SDS011;6741;48.964;9.406;2022-10-30T03:01:15;11.63;;;6.40;;
13343;SDS011;6741;48.964;9.406;2022-10-30T03:03:44;9.70;;;5.87;;
13343;SDS011;6741;48.964;9.406;2022-10-30T03:06:12;7.77;;;6.37;;
13343;SDS011;6741;48.964;9.406;2022-10-30T03:08:40;12.10;;;6.50;;
13343;SDS011;6741;48.964;9.406;2022-10-30T03:11:08;12.87;;;7.50;;
13343;SDS011;6741;48.964;9.406;2022-10-30T03:13:38;9.23;;;6.20;;
13343;SDS011;6741;48.964;9.406;2022-10-30T03:16:06;10.40;;;6.37;;
13343;SDS011;6741;48.964;9.406;2022-10-30T03:18:35;10.20;;;6.40;;
13343;SDS011;6741;48.964;9.406;2022-10-30T03:21:03;11.50;;;6.30;;
13343;SDS011;6741;48.964;9.406;2022-10-30T03:23:31;8.20;;;6.50;;
13343;SDS011;6741;48.964;9.406;2022-10-30T03:25:59;16.50;;;6.60;;
13343;SDS011;6741;48.964;9.406;2022-10-30T03:28:27;10.40;;;6.73;;
13343;SDS011;6741;48.964;9.406;2022-10-30T03:30:59;10.97;;;6.50;;
13343;SDS011;6741;48.964;9.406;2022-10-30T03:33:28;8.30;;;6.40;;
13343;SDS011;6741;48.964;9.406;2022-10-30T03:35:56;10.10;;;6.03;;
13343;SDS011;6741;48.964;9.406;2022-10-30T03:38:23;8.90;;;6.33;;
13343;SDS011;6741;48.964;9.406;2022-10-30T03:40:50;8.43;;;6.43;;
13343;SDS011;6741;48.964;9.406;2022-10-30T03:43:17;9.03;;;6.77;;
13343;SDS011;6741;48.964;9.406;2022-10-30T03:45:45;6.73;;;6.03;;
13343;SDS011;6741;48.964;9.406;2022-10-30T03:48:15;7.10;;;5.40;;
13343;SDS011;6741;48.964;9.406;2022-10-30T03:50:42;13.53;;;6.60;;
13343;SDS011;6741;48.964;9.406;2022-10-30T03:53:09;9.80;;;6.37;;
13343;SDS011;6741;48.964;9.406;2022-10-30T03:55:37;13.63;;;6.73;;
13343;SDS011;6741;48.964;9.406;2022-10-30T03:58:04;8.13;;;6.53;;
13343;SDS011;6741;48.964;9.406;2022-10-30T04:00:32;10.30;;;6.33;;
13343;SDS011;6741;48.964;9.406;2022-10-30T04:02:59;12.50;;;6.77;;
13343;SDS011;6741;48.964;9.406;2022-10-30T04:05:29;11.07;;;6.53;;
13343;SDS011;6741;48.964;9.406;2022-10-30T04:07:56;16.23;;;7.53;;
13343;SDS011;6741;48.964;9.406;2022-10-30T04:10:24;10.90;;;6.67;;
13343;SDS011;6741;48.964;9.406;2022-10-30T04:12:52;11.20;;;7.83;;
13343;SDS011;6741;48.964;9.406;2022-10-30T04:15:24;11.70;;;6.93;;
13343;SDS011;6741;48.964;9.406;2022-10-30T04:17:51;12.00;;;7.00;;
13343;SDS011;6741;48.964;9.406;2022-10-30T04:20:18;10.60;;;7.53;;
13343;SDS011;6741;48.964;9.406;2022-10-30T04:22:47;11.23;;;7.10;;
13343;SDS011;6741;48.964;9.406;2022-10-30T04:25:15;10.50;;;7.03;;
13343;SDS011;6741;48.964;9.406;2022-10-30T04:27:42;12.30;;;6.83;;
13343;SDS011;6741;48.964;9.406;2022-10-30T04:30:11;9.30;;;6.40;;
13343;SDS011;6741;48.964;9.406;2022-10-30T04:32:44;11.47;;;6.17;;
13343;SDS011;6741;48.964;9.406;2022-10-30T04:35:11;10.57;;;6.23;;
13343;SDS011;6741;48.964;9.406;2022-10-30T04:37:39;11.80;;;6.30;;
13343;SDS011;6741;48.964;9.406;2022-10-30T04:40:07;11.03;;;5.83;;
13343;SDS011;6741;48.964;9.406;2022-10-30T04:42:35;13.47;;;5.63;;
13343;SDS011;6741;48.964;9.406;2022-10-30T04:45:02;12.73;;;5.43;;
13343;SDS011;6741;48.964;9.406;2022-10-30T04:47:30;6.43;;;4.60;;
13343;SDS011;6741;48.964;9.406;2022-10-30T04:49:57;6.40;;;4.77;;
13343;SDS011;6741;48.964;9.406;2022-10-30T04:52:24;7.40;;;4.87;;
13343;SDS011;6741;48.964;9.406;2022-10-30T04:54:51;10.27;;;5.97;;
13343;SDS011;6741;48.964;9.406;2022-10-30T04:57:19;7.80;;;5.90;;
13343;SDS011;6741;48.964;9.406;2022-10-30T04:59:46;6.50;;;5.63;;
13343;SDS011;6741;48.964;9.406;2022-10-30T05:02:13;6.97;;;5.77;;
13343;SDS011;6741;48.964;9.406;2022-10-30T05:04:40;9.07;;;5.30;;
13343;SDS011;6741;48.964;9.406;2022-10-30T05:07:07;8.20;;;5.67;;
13343;SDS011;6741;48.964;9.406;2022-10-30T05:09:34;10.60;;;5.50;;
13343;SDS011;6741;48.964;9.406;2022-10-30T05:12:00;8.60;;;4.67;;
13343;SDS011;6741;48.964;9.406;2022-10-30T05:14:29;8.93;;;5.80;;
13343;SDS011;6741;48.964;9.406;2022-10-30T05:16:56;8.93;;;5.83;;
13343;SDS011;6741;48.964;9.406;2022-10-30T05:19:24;6.83;;;5.30;;
13343;SDS011;6741;48.964;9.406;2022-10-30T05:21:51;9.70;;;6.37;;
13343;SDS011;6741;48.964;9.406;2022-10-30T05:24:18;7.80;;;6.43;;
13343;SDS011;6741;48.964;9.406;2022-10-30T05:26:45;6.73;;;5.53;;
13343;SDS011;6741;48.964;9.406;2022-10-30T05:29:12;10.33;;;6.17;;
13343;SDS011;6741;48.964;9.406;2022-10-30T05:31:40;7.83;;;6.13;;
13343;SDS011;6741;48.964;9.406;2022-10-30T05:34:07;7.63;;;6.00;;
13343;SDS011;6741;48.964;9.406;2022-10-30T05:36:34;10.43;;;6.53;;
13343;SDS011;6741;48.964;9.406;2022-10-30T05:39:01;13.27;;;6.73;;
13343;SDS011;6741;48.964;9.406;2022-10-30T05:41:28;13.63;;;11.27;;
13343;SDS011;6741;48.964;9.406;2022-10-30T05:43:55;14.33;;;12.70;;
13343;SDS011;6741;48.964;9.406;2022-10-30T05:46:22;12.73;;;8.10;;
13343;SDS011;6741;48.964;9.406;2022-10-30T05:48:50;11.27;;;8.57;;
13343;SDS011;6741;48.964;9.406;2022-10-30T05:51:17;10.23;;;7.03;;
13343;SDS011;6741;48.964;9.406;2022-10-30T05:53:46;10.30;;;7.07;;
13343;SDS011;6741;48.964;9.406;2022-10-30T05:56:13;9.37;;;6.10;;
13343;SDS011;6741;48.964;9.406;2022-10-30T05:58:40;10.77;;;6.37;;
13343;SDS011;6741;48.964;9.406;2022-10-30T06:01:07;12.17;;;6.97;;
13343;SDS011;6741;48.964;9.406;2022-10-30T06:03:34;10.23;;;7.37;;
13343;SDS011;6741;48.964;9.406;2022-10-30T06:06:03;14.57;;;7.63;;
13343;SDS011;6741;48.964;9.406;2022-10-30T06:08:30;9.43;;;6.53;;
13343;SDS011;6741;48.964;9.406;2022-10-30T06:10:57;9.73;;;6.13;;
13343;SDS011;6741;48.964;9.406;2022-10-30T06:13:24;12.07;;;7.30;;
13343;SDS011;6741;48.964;9.406;2022-10-30T06:15:53;9.17;;;6.77;;
13343;SDS011;6741;48.964;9.406;2022-10-30T06:18:20;10.60;;;6.83;;
13343;SDS011;6741;48.964;9.406;2022-10-30T06:20:47;7.57;;;6.50;;
13343;SDS011;6741;48.964;9.406;2022-10-30T06:23:16;11.03;;;6.87;;
13343;SDS011;6741;48.964;9.406;2022-10-30T06:25:43;8.37;;;6.17;;
13343;SDS011;6741;48.964;9.406;2022-10-30T06:28:10;15.00;;;6.63;;
13343;SDS011;6741;48.964;9.406;2022-10-30T06:30:37;9.40;;;6.30;;
13343;SDS011;6741;48.964;9.406;2022-10-30T06:33:05;9.17;;;6.03;;
13343;SDS011;6741;48.964;9.406;2022-10-30T06:35:32;8.53;;;6.57;;
13343;SDS011;6741;48.964;9.406;2022-10-30T06:37:59;9.47;;;6.60;;
13343;SDS011;6741;48.964;9.406;2022-10-30T06:40:28;14.97;;;6.93;;
13343;SDS011;6741;48.964;9.406;2022-10-30T06:42:55;7.27;;;5.53;;
13343;SDS011;6741;48.964;9.406;2022-10-30T06:45:22;7.67;;;6.00;;
13343;SDS011;6741;48.964;9.406;2022-10-30T06:47:50;9.07;;;6.20;;
13343;SDS011;6741;48.964;9.406;2022-10-30T06:50:18;8.50;;;6.20;;
13343;SDS011;6741;48.964;9.406;2022-10-30T06:52:46;10.03;;;6.30;;
13343;SDS011;6741;48.964;9.406;2022-10-30T06:55:14;8.50;;;6.77;;
13343;SDS011;6741;48.964;9.406;2022-10-30T06:57:42;8.87;;;6.63;;
13343;SDS011;6741;48.964;9.406;2022-10-30T07:00:09;9.63;;;7.83;;
13343;SDS011;6741;48.964;9.406;2022-10-30T07:02:37;10.50;;;7.30;;
13343;SDS011;6741;48.964;9.406;2022-10-30T07:05:04;10.87;;;8.10;;
13343;SDS011;6741;48.964;9.406;2022-10-30T07:07:32;10.90;;;8.43;;
13343;SDS011;6741;48.964;9.406;2022-10-30T07:09:59;11.27;;;7.90;;
13343;SDS011;6741;48.964;9.406;2022-10-30T07:12:25;11.93;;;7.33;;
13343;SDS011;6741;48.964;9.406;2022-10-30T07:14:54;9.40;;;7.47;;
13343;SDS011;6741;48.964;9.406;2022-10-30T07:17:21;10.50;;;6.70;;
13343;SDS011;6741;48.964;9.406;2022-10-30T07:19:48;9.67;;;7.03;;
13343;SDS011;6741;48.964;9.406;2022-10-30T07:22:15;9.20;;;6.57;;
13343;SDS011;6741;48.964;9.406;2022-10-30T07:24:42;8.43;;;6.53;;
13343;SDS011;6741;48.964;9.406;2022-10-30T07:27:08;10.83;;;6.67;;
13343;SDS011;6741;48.964;9.406;2022-10-30T07:29:35;7.60;;;6.37;;
13343;SDS011;6741;48.964;9.406;2022-10-30T07:32:04;8.67;;;6.03;;
13343;SDS011;6741;48.964;9.406;2022-10-30T07:34:31;13.60;;;6.23;;
13343;SDS011;6741;48.964;9.406;2022-10-30T07:36:58;11.93;;;7.20;;
13343;SDS011;6741;48.964;9.406;2022-10-30T07:39:25;10.73;;;6.53;;
13343;SDS011;6741;48.964;9.406;2022-10-30T07:41:52;8.80;;;5.77;;
13343;SDS011;6741;48.964;9.406;2022-10-30T07:44:19;10.10;;;6.57;;
13343;SDS011;6741;48.964;9.406;2022-10-30T07:46:46;10.47;;;5.70;;
13343;SDS011;6741;48.964;9.406;2022-10-30T07:49:14;8.00;;;6.73;;
13343;SDS011;6741;48.964;9.406;2022-10-30T07:51:41;11.23;;;6.47;;
13343;SDS011;6741;48.964;9.406;2022-10-30T07:54:08;12.13;;;6.10;;
13343;SDS011;6741;48.964;9.406;2022-10-30T07:56:35;10.50;;;6.20;;
13343;SDS011;6741;48.964;9.406;2022-10-30T07:59:02;8.60;;;6.07;;
13343;SDS011;6741;48.964;9.406;2022-10-30T08:01:30;11.30;;;6.33;;
13343;SDS011;6741;48.964;9.406;2022-10-30T08:03:57;8.33;;;6.10;;
13343;SDS011;6741;48.964;9.406;2022-10-30T08:06:25;14.63;;;5.97;;
13343;SDS011;6741;48.964;9.406;2022-10-30T08:08:52;8.83;;;6.27;;
13343;SDS011;6741;48.964;9.406;2022-10-30T08:11:19;10.13;;;5.40;;
13343;SDS011;6741;48.964;9.406;2022-10-30T08:13:46;10.37;;;5.33;;
13343;SDS011;6741;48.964;9.406;2022-10-30T08:16:13;9.50;;;5.63;;
13343;SDS011;6741;48.964;9.406;2022-10-30T08:18:41;7.40;;;4.57;;
13343;SDS011;6741;48.964;9.406;2022-10-30T08:21:08;7.93;;;5.10;;
13343;SDS011;6741;48.964;9.406;2022-10-30T08:23:36;9.87;;;4.43;;
13343;SDS011;6741;48.964;9.406;2022-10-30T08:26:04;9.70;;;4.33;;
13343;SDS011;6741;48.964;9.406;2022-10-30T08:28:31;11.80;;;5.07;;
13343;SDS011;6741;48.964;9.406;2022-10-30T08:30:58;9.13;;;4.40;;
13343;SDS011;6741;48.964;9.406;2022-10-30T08:33:26;11.27;;;4.60;;
13343;SDS011;6741;48.964;9.406;2022-10-30T08:35:54;13.23;;;4.70;;
13343;SDS011;6741;48.964;9.406;2022-10-30T08:38:22;11.30;;;4.57;;
13343;SDS011;6741;48.964;9.406;2022-10-30T08:40:51;12.27;;;4.83;;
13343;SDS011;6741;48.964;9.406;2022-10-30T08:43:18;8.77;;;4.17;;
13343;SDS011;6741;48.964;9.406;2022-10-30T08:45:46;9.30;;;4.17;;
13343;SDS011;6741;48.964;9.406;2022-10-30T08:48:16;9.20;;;4.33;;
13343;SDS011;6741;48.964;9.406;2022-10-30T08:50:43;6.13;;;4.33;;
13343;SDS011;6741;48.964;9.406;2022-10-30T08:53:10;8.80;;;4.70;;
13343;SDS011;6741;48.964;9.406;2022-10-30T08:55:38;9.40;;;4.43;;
13343;SDS011;6741;48.964;9.406;2022-10-30T08:58:07;10.35;;;4.13;;
13343;SDS011;6741;48.964;9.406;2022-10-30T09:00:34;14.40;;;4.90;;
13343;SDS011;6741;48.964;9.406;2022-10-30T09:03:01;11.88;;;4.60;;
13343;SDS011;6741;48.964;9.406;2022-10-30T09:05:28;8.85;;;4.53;;
13343;SDS011;6741;48.964;9.406;2022-10-30T09:07:55;8.25;;;4.57;;
13343;SDS011;6741;48.964;9.406;2022-10-30T09:10:24;10.70;;;3.80;;
13343;SDS011;6741;48.964;9.406;2022-10-30T09:12:55;15.32;;;4.68;;
13343;SDS011;6741;48.964;9.406;2022-10-30T09:15:24;8.77;;;4.30;;
13343;SDS011;6741;48.964;9.406;2022-10-30T09:17:55;9.32;;;4.53;;
13343;SDS011;6741;48.964;9.406;2022-10-30T09:20:22;9.55;;;4.60;;
13343;SDS011;6741;48.964;9.406;2022-10-30T09:22:49;14.05;;;4.60;;
13343;SDS011;6741;48.964;9.406;2022-10-30T09:25:16;9.15;;;4.20;;
13343;SDS011;6741;48.964;9.406;2022-10-30T09:27:43;10.00;;;4.28;;
13343;SDS011;6741;48.964;9.406;2022-10-30T09:30:11;9.27;;;4.63;;
13343;SDS011;6741;48.964;9.406;2022-10-30T09:32:40;8.65;;;3.88;;
13343;SDS011;6741;48.964;9.406;2022-10-30T09:35:07;9.15;;;3.85;;
13343;SDS011;6741;48.964;9.406;2022-10-30T09:37:34;9.50;;;4.18;;
13343;SDS011;6741;48.964;9.406;2022-10-30T09:40:02;10.63;;;4.35;;
13343;SDS011;6741;48.964;9.406;2022-10-30T09:42:33;8.20;;;3.80;;
13343;SDS011;6741;48.964;9.406;2022-10-30T09:45:17;12.52;;;4.57;;
13343;SDS011;6741;48.964;9.406;2022-10-30T09:48:05;11.35;;;3.85;;
13343;SDS011;6741;48.964;9.406;2022-10-30T09:50:45;11.40;;;3.92;;
13343;SDS011;6741;48.964;9.406;2022-10-30T09:53:23;7.45;;;3.70;;
13343;SDS011;6741;48.964;9.406;2022-10-30T09:55:59;9.75;;;3.70;;
13343;SDS011;6741;48.964;9.406;2022-10-30T09:58:31;10.50;;;3.95;;
13343;SDS011;6741;48.964;9.406;2022-10-30T10:01:06;7.43;;;3.90;;
13343;SDS011;6741;48.964;9.406;2022-10-30T10:03:40;10.20;;;4.22;;
13343;SDS011;6741;48.964;9.406;2022-10-30T10:06:21;10.68;;;3.60;;
13343;SDS011;6741;48.964;9.406;2022-10-30T10:08:51;9.70;;;3.47;;
13343;SDS011;6741;48.964;9.406;2022-10-30T10:11:23;9.68;;;3.88;;
13343;SDS011;6741;48.964;9.406;2022-10-30T10:13:53;11.48;;;3.38;;
13343;SDS011;6741;48.964;9.406;2022-10-30T10:16:27;10.60;;;3.78;;
13343;SDS011;6741;48.964;9.406;2022-10-30T10:18:57;13.50;;;3.53;;
13343;SDS011;6741;48.964;9.406;2022-10-30T10:21:31;9.95;;;3.63;;
13343;SDS011;6741;48.964;9.406;2022-10-30T10:24:02;9.88;;;3.97;;
13343;SDS011;6741;48.964;9.406;2022-10-30T10:26:46;10.15;;;3.42;;
13343;SDS011;6741;48.964;9.406;2022-10-30T10:29:19;7.22;;;3.35;;
13343;SDS011;6741;48.964;9.406;2022-10-30T10:32:08;8.30;;;3.40;;
13343;SDS011;6741;48.964;9.406;2022-10-30T10:38:01;8.90;;;3.50;;
13343;SDS011;6741;48.964;9.406;2022-10-30T10:40:39;12.18;;;3.60;;
13343;SDS011;6741;48.964;9.406;2022-10-30T10:43:18;5.80;;;3.30;;
13343;SDS011;6741;48.964;9.406;2022-10-30T10:45:55;11.38;;;3.80;;
13343;SDS011;6741;48.964;9.406;2022-10-30T10:48:36;10.07;;;3.35;;
13343;SDS011;6741;48.964;9.406;2022-10-30T10:51:12;9.32;;;3.30;;
13343;SDS011;6741;48.964;9.406;2022-10-30T10:53:43;10.80;;;3.83;;
13343;SDS011;6741;48.964;9.406;2022-10-30T10:56:13;10.15;;;3.28;;
13343;SDS011;6741;48.964;9.406;2022-10-30T10:58:43;9.95;;;3.50;;
13343;SDS011;6741;48.964;9.406;2022-10-30T11:01:16;10.77;;;3.80;;
13343;SDS011;6741;48.964;9.406;2022-10-30T11:03:49;14.27;;;3.33;;
13343;SDS011;6741;48.964;9.406;2022-10-30T11:06:23;4.13;;;2.75;;
13343;SDS011;6741;48.964;9.406;2022-10-30T11:08:55;7.00;;;2.63;;
13343;SDS011;6741;48.964;9.406;2022-10-30T11:11:28;7.30;;;2.97;;
13343;SDS011;6741;48.964;9.406;2022-10-30T11:16:58;8.85;;;2.70;;
13343;SDS011;6741;48.964;9.406;2022-10-30T11:19:30;5.45;;;2.35;;
13343;SDS011;6741;48.964;9.406;2022-10-30T11:21:57;9.70;;;3.00;;
13343;SDS011;6741;48.964;9.406;2022-10-30T11:24:28;6.88;;;2.75;;
13343;SDS011;6741;48.964;9.406;2022-10-30T11:26:57;5.45;;;2.78;;
13343;SDS011;6741;48.964;9.406;2022-10-30T11:29:34;5.20;;;2.40;;
13343;SDS011;6741;48.964;9.406;2022-10-30T11:32:01;7.28;;;2.70;;
13343;SDS011;6741;48.964;9.406;2022-10-30T11:34:31;8.52;;;3.75;;
13343;SDS011;6741;48.964;9.406;2022-10-30T11:36:59;5.97;;;2.88;;
13343;SDS011;6741;48.964;9.406;2022-10-30T11:39:29;9.70;;;2.72;;
13343;SDS011;6741;48.964;9.406;2022-10-30T11:42:02;5.57;;;2.92;;
13343;SDS011;6741;48.964;9.406;2022-10-30T11:44:33;9.40;;;3.20;;
13343;SDS011;6741;48.964;9.406;2022-10-30T11:47:03;8.88;;;3.20;;
13343;SDS011;6741;48.964;9.406;2022-10-30T11:49:33;10.90;;;3.40;;
13343;SDS011;6741;48.964;9.406;2022-10-30T11:52:06;5.38;;;2.88;;
13343;SDS011;6741;48.964;9.406;2022-10-30T11:54:36;10.23;;;4.03;;
13343;SDS011;6741;48.964;9.406;2022-10-30T11:57:19;8.15;;;3.00;;
13343;SDS011;6741;48.964;9.406;2022-10-30T11:59:48;7.93;;;2.97;;
13343;SDS011;6741;48.964;9.406;2022-10-30T12:02:20;7.65;;;3.20;;
13343;SDS011;6741;48.964;9.406;2022-10-30T12:04:51;11.18;;;3.38;;
13343;SDS011;6741;48.964;9.406;2022-10-30T12:07:19;9.05;;;3.10;;
13343;SDS011;6741;48.964;9.406;2022-10-30T12:09:53;8.27;;;3.22;;
13343;SDS011;6741;48.964;9.406;2022-10-30T12:12:22;12.05;;;3.13;;
13343;SDS011;6741;48.964;9.406;2022-10-30T12:14:52;7.43;;;3.22;;
13343;SDS011;6741;48.964;9.406;2022-10-30T12:17:20;7.75;;;2.75;;
13343;SDS011;6741;48.964;9.406;2022-10-30T12:19:48;6.65;;;2.97;;
13343;SDS011;6741;48.964;9.406;2022-10-30T12:22:29;5.93;;;3.10;;
13343;SDS011;6741;48.964;9.406;2022-10-30T12:24:59;10.30;;;3.05;;
13343;SDS011;6741;48.964;9.406;2022-10-30T12:27:28;6.15;;;3.33;;
13343;SDS011;6741;48.964;9.406;2022-10-30T12:29:58;7.95;;;2.53;;
13343;SDS011;6741;48.964;9.406;2022-10-30T12:32:35;7.22;;;2.78;;
13343;SDS011;6741;48.964;9.406;2022-10-30T12:35:09;6.07;;;2.80;;
13343;SDS011;6741;48.964;9.406;2022-10-30T12:38:01;8.02;;;2.67;;
13343;SDS011;6741;48.964;9.406;2022-10-30T12:40:30;9.73;;;3.15;;
13343;SDS011;6741;48.964;9.406;2022-10-30T12:43:07;5.45;;;3.03;;
13343;SDS011;6741;48.964;9.406;2022-10-30T12:45:42;7.60;;;3.08;;
13343;SDS011;6741;48.964;9.406;2022-10-30T12:48:13;7.28;;;2.80;;
13343;SDS011;6741;48.964;9.406;2022-10-30T12:50:50;6.07;;;2.50;;
13343;SDS011;6741;48.964;9.406;2022-10-30T12:53:24;9.45;;;2.83;;
13343;SDS011;6741;48.964;9.406;2022-10-30T12:55:56;8.73;;;3.10;;
13343;SDS011;6741;48.964;9.406;2022-10-30T12:58:30;6.65;;;3.28;;
13343;SDS011;6741;48.964;9.406;2022-10-30T13:01:06;8.07;;;2.80;;
13343;SDS011;6741;48.964;9.406;2022-10-30T13:03:45;7.72;;;2.42;;
13343;SDS011;6741;48.964;9.406;2022-10-30T13:06:18;7.88;;;3.05;;
13343;SDS011;6741;48.964;9.406;2022-10-30T13:09:01;6.40;;;2.28;;
13343;SDS011;6741;48.964;9.406;2022-10-30T13:11:38;6.25;;;2.80;;
13343;SDS011;6741;48.964;9.406;2022-10-30T13:14:10;9.65;;;2.90;;
13343;SDS011;6741;48.964;9.406;2022-10-30T13:16:41;7.32;;;2.80;;
13343;SDS011;6741;48.964;9.406;2022-10-30T13:19:08;7.88;;;3.33;;
13343;SDS011;6741;48.964;9.406;2022-10-30T13:21:38;8.07;;;2.72;;
13343;SDS011;6741;48.964;9.406;2022-10-30T13:24:11;6.10;;;2.90;;
13343;SDS011;6741;48.964;9.406;2022-10-30T13:26:45;7.68;;;2.90;;
13343;SDS011;6741;48.964;9.406;2022-10-30T13:29:19;7.00;;;3.22;;
13343;SDS011;6741;48.964;9.406;2022-10-30T13:31:54;9.63;;;3.35;;
13343;SDS011;6741;48.964;9.406;2022-10-30T13:34:33;10.52;;;3.30;;
13343;SDS011;6741;48.964;9.406;2022-10-30T13:37:07;7.03;;;2.75;;
13343;SDS011;6741;48.964;9.406;2022-10-30T13:39:42;7.93;;;2.90;;
13343;SDS011;6741;48.964;9.406;2022-10-30T13:42:22;5.85;;;2.80;;
13343;SDS011;6741;48.964;9.406;2022-10-30T13:45:10;6.32;;;3.00;;
13343;SDS011;6741;48.964;9.406;2022-10-30T13:47:51;5.78;;;3.20;;
13343;SDS011;6741;48.964;9.406;2022-10-30T13:50:27;7.60;;;2.75;;
13343;SDS011;6741;48.964;9.406;2022-10-30T13:53:09;6.93;;;2.60;;
13343;SDS011;6741;48.964;9.406;2022-10-30T13:55:40;6.00;;;3.00;;
13343;SDS011;6741;48.964;9.406;2022-10-30T13:58:11;10.10;;;3.25;;
13343;SDS011;6741;48.964;9.406;2022-10-30T14:00:49;6.13;;;3.00;;
13343;SDS011;6741;48.964;9.406;2022-10-30T14:03:26;6.70;;;3.47;;
13343;SDS011;6741;48.964;9.406;2022-10-30T14:06:06;9.52;;;2.92;;
13343;SDS011;6741;48.964;9.406;2022-10-30T14:08:39;9.50;;;3.40;;
13343;SDS011;6741;48.964;9.406;2022-10-30T14:11:10;6.97;;;3.38;;
13343;SDS011;6741;48.964;9.406;2022-10-30T14:13:47;8.85;;;2.75;;
13343;SDS011;6741;48.964;9.406;2022-10-30T14:19:08;8.80;;;3.30;;
13343;SDS011;6741;48.964;9.406;2022-10-30T14:21:39;7.40;;;3.15;;
13343;SDS011;6741;48.964;9.406;2022-10-30T14:24:12;9.38;;;3.33;;
13343;SDS011;6741;48.964;9.406;2022-10-30T14:26:53;8.20;;;3.13;;
13343;SDS011;6741;48.964;9.406;2022-10-30T14:29:40;6.63;;;2.75;;
13343;SDS011;6741;48.964;9.406;2022-10-30T14:35:32;8.05;;;2.97;;
13343;SDS011;6741;48.964;9.406;2022-10-30T14:41:11;6.63;;;2.88;;
13343;SDS011;6741;48.964;9.406;2022-10-30T14:44:02;8.18;;;2.92;;
13343;SDS011;6741;48.964;9.406;2022-10-30T14:46:50;6.40;;;2.97;;
13343;SDS011;6741;48.964;9.406;2022-10-30T14:49:33;6.75;;;3.28;;
13343;SDS011;6741;48.964;9.406;2022-10-30T14:52:12;5.63;;;3.10;;
13343;SDS011;6741;48.964;9.406;2022-10-30T14:54:44;5.68;;;2.88;;
13343;SDS011;6741;48.964;9.406;2022-10-30T14:57:20;7.43;;;2.47;;
13343;SDS011;6741;48.964;9.406;2022-10-30T14:59:48;10.48;;;3.03;;
13343;SDS011;6741;48.964;9.406;2022-10-30T15:02:54;6.38;;;3.20;;
13343;SDS011;6741;48.964;9.406;2022-10-30T15:05:30;6.95;;;3.38;;
13343;SDS011;6741;48.964;9.406;2022-10-30T15:08:09;11.52;;;3.50;;
13343;SDS011;6741;48.964;9.406;2022-10-30T15:10:49;9.15;;;3.60;;
13343;SDS011;6741;48.964;9.406;2022-10-30T15:13:25;6.50;;;3.28;;
13343;SDS011;6741;48.964;9.406;2022-10-30T15:15:55;9.52;;;3.55;;
13343;SDS011;6741;48.964;9.406;2022-10-30T15:18:25;8.68;;;3.90;;
13343;SDS011;6741;48.964;9.406;2022-10-30T15:20:54;6.68;;;4.10;;
13343;SDS011;6741;48.964;9.406;2022-10-30T15:23:26;8.05;;;4.85;;
13343;SDS011;6741;48.964;9.406;2022-10-30T15:25:55;6.75;;;4.80;;
13343;SDS011;6741;48.964;9.406;2022-10-30T15:28:24;10.02;;;4.55;;
13343;SDS011;6741;48.964;9.406;2022-10-30T15:30:57;9.57;;;3.88;;